Terminal Aerodrome Forecast
Issued by NWS Wichita, KS

Home | Current Version | Previous Version | Text Only | Print | Product List | Glossary On
Versions: 1 2 3 4 5 6 7 8 9 10 11 12
000
FTUS43 KICT 262300
TAFICT
TAF
KICT 262331Z 2700/2724 19010KT P6SM VCTS BKN100CB
     FM270200 18005KT P6SM BKN100
     FM270600 01009KT P6SM VCTS BKN100CB
     FM271000 02013KT P6SM BKN120=

USA.gov is the U.S. government's official web portal to all federal, state and local government web resources and services.